Grand Forks Air Force Base Grand Forks US
ICAO: KRDR
IATA: RDR
Category: Medium
Scheduled Services: No

Elevation: 913 ft
TransAlt. 18000 ft.

Airport Communications:
APP/DEP:118.1
ATIS:27.345
CLNC DEL:119.15
GND:119.15
PMSV METRO:34.35
COMD POST:31.1
PTD:37.22
RDO:122.2
RED RIVER TWR:124.9

KRDR Zoom In..

If you have problems with the map follow the link
https://www.worldairports.se/pages/airport.php?
ICAO=KRDR

Runways:

(A) RW 17 length 12351 ft width 150 ft
ILS 111.30 / hdg 174

(B) RW 35 length 12351 ft width 150 ft
ILS 109.90 / hdg 354

Location; KRDR
Day. 20 / Time. 21.21 Zulu
* Altimeter: 29.66
* Temperature: -07° c. -19.4°f.
* Wind from: 050° Speed 11 kn.
Dewpoint: -09° c.
Visibility: 1/2 Statute Miles.
Conditions: Snow.Conditions: Freezing fog.

KRDR 202121Z 05011KT 1/2SM R35/3000FT SN FZFG VV012 M07/M09 A2966 RMK AO2A CIG 007V012 CIG 011 RWY17 SLP068 $


Wind From 050°
Speed 11 kn.

 
 
jpsmedia.com for Web Design worldairports.se 2019   terms of use